Главная страница
METAR-TAF:

METAR-TAF

Аэропорты :

Даллас/Форт-Уэрт

Даллас / Форт-Уэрт, Техас, США

широта: 32-53-49N, долгота: 097-01-19W, высота над уровнем моря: 183 м

Текущие метеонаблюдения

Эта сводка был подготовлена 25 минут назад, в 05:53 UTC
Ветер 3 Узел от юго-восточный
Температура 12°C
Влажность 67%
Давление 1023 hPa
Видимость: 16.1 км
Рассеянная облачность на высоте 25000 фута
Рассеянная облачность на высоте 30000 фута

METAR: KDFW 220553Z 13003KT 10SM BKN250 BKN300 12/06 A3020 RMK AO2 SLP223 T01170061 10167 20106 402110094 58002

Время: 01:18 (06:18 UTC)

Прогноз

Эта сводка был подготовлена 58 минут назад, в 05:20 UTC
Прогноз действительный с 22-го 06 UTC до 23-го 12 UTC
Ветер 5 Узел от восточно-юго-восточный
Видимость: 10 км
Рассеянная облачность на высоте 30000 фута
С 22-го 1400 UTC
Ветер 6 Узел от юго-юго-восточный
Видимость: 10 км
Рассеянная облачность на высоте 14000 фута

TAF: KDFW 220520Z 2206/2312 11005KT P6SM BKN300 FM221400 15006KT P6SM BKN140

Метеонаблюдения и прогнозы для более 4000 аэропортов (сводки METAR и TAF).

Имеющиеся станции представлены на карте желтыми и красными точками.

Чтобы увидеть название станции, наведите на нее мышь.

Затем щелкните, чтобы увидеть метеонаблюдения и метеопрогнозы.

Управление картой: чтобы увеличить масштаб, щелкните зеленые кнопки с черным крестиком; чтобы уменьшить масштаб, щелкните зеленую кнопку с тире; для просмотра соседних карт щелкайте зеленые стрелки.


METAR-TAF: